Time;durP1;ratioP1;P1;durP2;ratioP2;P2;SDS_P1;SDS_P2;PMS_P1;PMS_P2;Temp;Humidity;BMP_temperature;BMP_pressure;BME280_temperature;BME280_humidity;BME280_pressure;Samples;Min_cycle;Max_cycle;Signal;HPM_P1;HPM_P2
2023/05/25 00:01:35;;;;;;;7.97;2.50;;;11.80;85.70;;;;;;5052077;28;20039;-77
2023/05/25 00:04:02;;;;;;;4.38;2.40;;;11.80;85.80;;;;;;5033124;28;20025;-76
2023/05/25 00:06:29;;;;;;;3.72;2.08;;;11.90;86.10;;;;;;5051421;28;20029;-76
2023/05/25 00:08:56;;;;;;;2.53;1.77;;;11.80;86.20;;;;;;5051113;28;20468;-76
2023/05/25 00:11:23;;;;;;;5.97;2.83;;;11.80;86.40;;;;;;5051431;28;20473;-76
2023/05/25 00:13:50;;;;;;;5.78;2.30;;;11.80;86.50;;;;;;5032596;28;20035;-75
2023/05/25 00:16:16;;;;;;;5.22;2.33;;;11.70;86.50;;;;;;5032749;28;20086;-76
2023/05/25 00:18:42;;;;;;;3.15;1.98;;;11.70;86.70;;;;;;5051247;28;20096;-77
2023/05/25 00:21:08;;;;;;;2.40;1.75;;;11.60;86.90;;;;;;5051674;28;20028;-76
2023/05/25 00:23:34;;;;;;;2.13;1.92;;;11.60;87.10;;;;;;5053348;28;20025;-76
2023/05/25 00:26:01;;;;;;;2.42;1.77;;;11.60;87.40;;;;;;5035131;28;20434;-77
2023/05/25 00:28:27;;;;;;;3.17;1.95;;;11.60;87.40;;;;;;5047784;28;20017;-76
2023/05/25 00:30:52;;;;;;;3.83;1.58;;;11.60;87.40;;;;;;5031788;28;20029;-76
2023/05/25 00:33:18;;;;;;;3.03;1.75;;;11.70;87.50;;;;;;5038793;28;20060;-75
2023/05/25 00:35:45;;;;;;;2.53;1.48;;;11.70;87.50;;;;;;5050882;28;20389;-77
2023/05/25 00:38:17;;;;;;;4.18;2.10;;;11.70;87.40;;;;;;5051742;28;20025;-76
2023/05/25 00:40:43;;;;;;;6.03;2.15;;;11.70;87.30;;;;;;5050959;28;20084;-75
2023/05/25 00:43:10;;;;;;;5.55;2.28;;;11.70;87.40;;;;;;5051102;28;20049;-74
2023/05/25 00:45:35;;;;;;;5.82;2.67;;;11.70;87.70;;;;;;5034815;28;20052;-75
2023/05/25 00:48:03;;;;;;;5.88;2.95;;;11.60;87.90;;;;;;5015360;28;20074;-75
2023/05/25 00:50:37;;;;;;;8.07;2.70;;;11.60;88.30;;;;;;5038388;28;20025;-76
2023/05/25 00:53:08;;;;;;;5.13;2.42;;;11.60;88.70;;;;;;5038537;28;20166;-76
2023/05/25 00:55:49;;;;;;;6.78;2.90;;;11.50;89.00;;;;;;5056221;28;20029;-76
2023/05/25 00:58:19;;;;;;;5.88;2.85;;;11.50;89.20;;;;;;5033011;28;20013;-75
2023/05/25 01:00:48;;;;;;;7.15;2.95;;;11.50;89.50;;;;;;5052747;28;20385;-76
2023/05/25 01:03:20;;;;;;;6.28;2.13;;;11.50;89.70;;;;;;5037221;28;20055;-75
2023/05/25 01:05:47;;;;;;;6.28;2.85;;;11.50;89.60;;;;;;5054614;28;20017;-75
2023/05/25 01:08:16;;;;;;;6.78;3.30;;;11.50;89.70;;;;;;5054791;28;20033;-76
2023/05/25 01:10:44;;;;;;;8.48;3.58;;;11.50;89.70;;;;;;5037432;28;20101;-77
2023/05/25 01:13:13;;;;;;;7.50;3.00;;;11.40;90.00;;;;;;5036265;28;20036;-76
2023/05/25 01:15:39;;;;;;;10.25;3.17;;;11.50;90.10;;;;;;5016936;28;20425;-77
2023/05/25 01:18:05;;;;;;;7.80;2.67;;;11.50;90.10;;;;;;5034641;28;20041;-77
2023/05/25 01:20:30;;;;;;;7.60;3.10;;;11.40;90.20;;;;;;5034882;28;20029;-75
2023/05/25 01:23:11;;;;;;;6.13;2.80;;;11.50;90.20;;;;;;5048850;28;20032;-76
2023/05/25 01:25:58;;;;;;;5.88;2.70;;;11.50;90.30;;;;;;5054758;28;20056;-76
2023/05/25 01:28:37;;;;;;;6.22;2.65;;;11.50;90.40;;;;;;5043145;28;20061;-75
2023/05/25 01:31:03;;;;;;;7.03;2.75;;;11.50;90.40;;;;;;5037968;28;20517;-74
2023/05/25 01:33:30;;;;;;;6.18;2.60;;;11.60;90.50;;;;;;5036017;28;20565;-74
2023/05/25 01:35:56;;;;;;;4.90;3.00;;;11.60;90.50;;;;;;5035135;28;20445;-76
2023/05/25 01:38:22;;;;;;;9.02;3.40;;;11.60;90.60;;;;;;5037470;28;20024;-76
2023/05/25 01:40:48;;;;;;;4.97;2.25;;;11.60;90.70;;;;;;5036778;28;20080;-75
2023/05/25 01:43:15;;;;;;;7.20;2.58;;;11.60;90.80;;;;;;5044499;28;20036;-76
2023/05/25 01:45:40;;;;;;;8.00;3.33;;;11.60;90.90;;;;;;5044212;28;20041;-74
2023/05/25 01:48:12;;;;;;;6.05;2.97;;;11.60;90.90;;;;;;5016175;28;20104;-77
2023/05/25 01:50:59;;;;;;;9.10;2.95;;;11.60;91.10;;;;;;5034400;28;20089;-80
2023/05/25 01:53:38;;;;;;;4.63;2.80;;;11.60;91.20;;;;;;5034805;28;20101;-75
2023/05/25 01:56:10;;;;;;;5.95;2.75;;;11.60;91.30;;;;;;5042617;28;20421;-77
2023/05/25 01:58:42;;;;;;;4.78;2.38;;;11.60;91.50;;;;;;5043536;28;20048;-76
2023/05/25 02:01:09;;;;;;;2.90;2.03;;;11.70;91.70;;;;;;5016258;28;20021;-76
2023/05/25 02:03:40;;;;;;;3.78;2.30;;;11.70;91.80;;;;;;5024548;28;20036;-76
2023/05/25 02:06:07;;;;;;;3.33;2.08;;;11.70;91.90;;;;;;5035697;28;20596;-77
2023/05/25 02:08:33;;;;;;;3.00;2.00;;;11.70;92.10;;;;;;5054627;28;20051;-75
2023/05/25 02:10:58;;;;;;;5.18;2.17;;;11.70;92.40;;;;;;5054486;28;20473;-76
2023/05/25 02:13:24;;;;;;;4.80;2.38;;;11.70;92.40;;;;;;5050920;28;20037;-77
2023/05/25 02:15:50;;;;;;;4.85;2.97;;;11.60;92.70;;;;;;5015233;28;20052;-76
2023/05/25 02:18:18;;;;;;;7.28;3.58;;;11.60;93.10;;;;;;5034398;28;20045;-77
2023/05/25 02:20:44;;;;;;;4.20;2.60;;;11.60;93.50;;;;;;5034253;28;20026;-76
2023/05/25 02:23:10;;;;;;;4.47;2.92;;;11.60;93.90;;;;;;5016867;28;20033;-77
2023/05/25 02:25:36;;;;;;;5.80;4.07;;;11.60;94.40;;;;;;5052586;28;20048;-77
2023/05/25 02:28:04;;;;;;;6.43;4.38;;;11.70;94.60;;;;;;5051109;28;20025;-77
2023/05/25 02:30:30;;;;;;;6.45;3.85;;;11.80;94.90;;;;;;5050192;28;20134;-77
2023/05/25 02:32:55;;;;;;;5.63;3.58;;;11.90;95.10;;;;;;5038538;28;20128;-77
2023/05/25 02:35:21;;;;;;;5.57;3.95;;;12.00;95.50;;;;;;5068079;28;20049;-76
2023/05/25 02:37:47;;;;;;;5.03;4.05;;;12.00;95.40;;;;;;5056647;28;20029;-77
2023/05/25 02:40:13;;;;;;;6.93;4.80;;;12.00;95.70;;;;;;5071590;28;20033;-76
2023/05/25 02:42:39;;;;;;;11.10;5.70;;;12.00;96.00;;;;;;5055872;28;20081;-77
2023/05/25 02:45:09;;;;;;;7.03;5.05;;;12.10;96.40;;;;;;5064833;28;20022;-76
2023/05/25 02:47:35;;;;;;;7.53;5.15;;;12.00;96.60;;;;;;5055434;28;20010;-77
2023/05/25 02:50:01;;;;;;;11.93;5.07;;;12.10;96.80;;;;;;5034568;28;20064;-76
2023/05/25 02:52:29;;;;;;;13.50;8.82;;;12.10;97.10;;;;;;5047482;28;20045;-77
2023/05/25 02:54:55;;;;;;;11.35;7.93;;;12.10;97.50;;;;;;5019311;28;20041;-77
2023/05/25 02:57:22;;;;;;;19.27;11.35;;;12.10;98.00;;;;;;5020970;28;20072;-77
2023/05/25 02:59:48;;;;;;;14.20;10.80;;;12.10;98.60;;;;;;5030963;28;20078;-72
2023/05/25 03:02:17;;;;;;;18.73;11.65;;;12.10;99.00;;;;;;5055978;28;20466;-72
2023/05/25 03:04:44;;;;;;;15.25;10.35;;;12.10;99.40;;;;;;5044099;28;20026;-72
2023/05/25 03:07:11;;;;;;;16.40;10.48;;;12.00;99.80;;;;;;5051039;28;20029;-72
2023/05/25 03:09:37;;;;;;;12.57;9.43;;;12.00;99.90;;;;;;5031553;28;20021;-71
2023/05/25 03:12:03;;;;;;;14.38;9.80;;;12.00;99.90;;;;;;5031310;28;20049;-72
2023/05/25 03:14:28;;;;;;;13.38;9.70;;;12.10;99.90;;;;;;5030563;28;20026;-72
2023/05/25 03:16:54;;;;;;;13.07;8.32;;;12.00;99.90;;;;;;5046048;28;20033;-72
2023/05/25 03:19:20;;;;;;;13.20;9.63;;;12.10;99.90;;;;;;5051711;28;20059;-73
2023/05/25 03:21:46;;;;;;;12.55;8.80;;;12.10;99.90;;;;;;5051452;28;20358;-72
2023/05/25 03:24:12;;;;;;;8.48;6.60;;;12.10;99.90;;;;;;5032923;28;20032;-72
2023/05/25 03:26:38;;;;;;;9.35;7.03;;;12.10;99.90;;;;;;5042971;28;20029;-73
2023/05/25 03:29:05;;;;;;;9.05;7.60;;;12.20;99.90;;;;;;5042874;28;20028;-72
2023/05/25 03:31:31;;;;;;;15.80;9.10;;;12.20;99.90;;;;;;5051957;28;20025;-73
2023/05/25 03:33:57;;;;;;;11.68;8.48;;;12.20;99.90;;;;;;5056608;28;20143;-72
2023/05/25 03:36:26;;;;;;;9.82;7.35;;;12.20;99.90;;;;;;5059781;28;20029;-74
2023/05/25 03:38:53;;;;;;;13.02;8.95;;;12.20;99.90;;;;;;5064611;28;20100;-73
2023/05/25 03:48:02;;;;;;;7.88;6.72;;;12.30;99.90;;;;;;5045605;28;20043;-73
2023/05/25 03:50:28;;;;;;;14.55;8.45;;;12.30;99.90;;;;;;5051986;28;20033;-72
2023/05/25 03:52:54;;;;;;;13.98;8.30;;;12.30;99.90;;;;;;5052099;28;20032;-72
2023/05/25 03:55:19;;;;;;;10.48;7.60;;;12.30;99.90;;;;;;5053378;28;20021;-73
2023/05/25 03:57:45;;;;;;;12.00;7.45;;;12.30;99.90;;;;;;5048856;28;20097;-72
2023/05/25 04:00:11;;;;;;;11.35;6.43;;;12.30;99.90;;;;;;5042173;28;20060;-73
2023/05/25 04:02:37;;;;;;;12.15;7.63;;;12.30;99.90;;;;;;5052479;28;20075;-73
2023/05/25 04:05:03;;;;;;;8.63;6.93;;;12.40;99.90;;;;;;5051044;28;20025;-73
2023/05/25 04:07:29;;;;;;;11.85;7.40;;;12.40;99.90;;;;;;5038892;28;20079;-73
2023/05/25 04:09:58;;;;;;;12.82;8.07;;;12.40;99.90;;;;;;5032658;28;20071;-73
2023/05/25 04:12:26;;;;;;;11.35;8.25;;;12.40;99.90;;;;;;5030950;28;20108;-73
2023/05/25 04:14:52;;;;;;;9.35;7.43;;;12.40;99.90;;;;;;5031138;28;20017;-72
2023/05/25 04:17:20;;;;;;;14.70;8.45;;;12.50;99.90;;;;;;5032037;28;20147;-73
2023/05/25 04:19:46;;;;;;;11.52;8.05;;;12.50;99.90;;;;;;5050895;28;20083;-72
2023/05/25 04:22:12;;;;;;;11.13;8.18;;;12.50;99.90;;;;;;5035735;28;20021;-72
2023/05/25 04:24:37;;;;;;;11.32;7.53;;;12.50;99.90;;;;;;5059203;28;20098;-72
2023/05/25 04:27:04;;;;;;;13.10;7.55;;;12.50;99.90;;;;;;5058874;28;20025;-72
2023/05/25 04:29:30;;;;;;;11.65;6.57;;;12.50;99.90;;;;;;5031785;28;20025;-73
2023/05/25 04:31:56;;;;;;;11.27;6.40;;;12.60;99.90;;;;;;5058335;28;20024;-78
2023/05/25 04:34:22;;;;;;;13.48;8.57;;;12.60;99.90;;;;;;5060173;28;20103;-78
2023/05/25 04:36:48;;;;;;;11.77;6.07;;;12.70;99.90;;;;;;5062057;28;20021;-77
2023/05/25 04:39:14;;;;;;;10.90;7.50;;;12.70;99.90;;;;;;5042371;28;20582;-78
2023/05/25 04:41:43;;;;;;;9.43;8.23;;;12.80;99.90;;;;;;5041740;28;20096;-78
2023/05/25 04:44:08;;;;;;;10.32;7.28;;;12.90;99.90;;;;;;5039434;28;20498;-78
2023/05/25 04:46:37;;;;;;;12.43;7.50;;;12.90;99.90;;;;;;5023122;28;20069;-78
2023/05/25 04:49:04;;;;;;;13.25;8.43;;;12.90;99.90;;;;;;5057314;28;20036;-77
2023/05/25 04:51:31;;;;;;;13.10;8.07;;;13.00;99.80;;;;;;5061928;28;20017;-77
2023/05/25 04:53:57;;;;;;;10.82;7.80;;;13.00;99.80;;;;;;5060929;28;20024;-77
2023/05/25 04:56:24;;;;;;;16.75;8.68;;;13.00;99.70;;;;;;5041534;28;20025;-78
2023/05/25 04:58:51;;;;;;;11.75;7.43;;;13.00;99.60;;;;;;5024362;28;20029;-77
2023/05/25 05:01:18;;;;;;;15.68;9.88;;;12.90;99.70;;;;;;5040536;28;20497;-76
2023/05/25 05:03:44;;;;;;;16.05;9.10;;;13.00;99.80;;;;;;5041257;28;20485;-78
2023/05/25 05:06:10;;;;;;;13.60;9.85;;;12.90;99.80;;;;;;5039666;28;20117;-78
2023/05/25 05:08:35;;;;;;;16.52;9.07;;;12.90;99.80;;;;;;5048256;28;20403;-78
2023/05/25 05:11:01;;;;;;;13.20;8.07;;;12.90;99.90;;;;;;5045631;28;20095;-77
2023/05/25 05:13:27;;;;;;;9.88;8.07;;;12.80;99.90;;;;;;5025550;28;20227;-79
2023/05/25 05:15:52;;;;;;;10.68;7.85;;;12.90;99.90;;;;;;5024227;28;20029;-78
2023/05/25 05:18:19;;;;;;;9.50;6.72;;;12.90;99.90;;;;;;5057459;28;20017;-79
2023/05/25 05:20:45;;;;;;;9.27;5.78;;;12.90;99.90;;;;;;5062024;28;20021;-77
2023/05/25 05:23:12;;;;;;;10.60;7.10;;;12.90;99.90;;;;;;5036835;28;20040;-78
2023/05/25 05:25:38;;;;;;;10.18;7.35;;;13.00;99.90;;;;;;5057372;28;20041;-78
2023/05/25 05:28:04;;;;;;;9.32;7.35;;;13.00;99.90;;;;;;5074980;28;20080;-77
2023/05/25 05:30:29;;;;;;;12.27;7.88;;;13.00;99.90;;;;;;5065190;28;20128;-78
2023/05/25 05:32:55;;;;;;;11.77;7.57;;;13.00;99.90;;;;;;5046456;28;20416;-79
2023/05/25 05:35:21;;;;;;;8.45;6.28;;;13.10;99.90;;;;;;5050647;28;20039;-77
2023/05/25 05:37:47;;;;;;;7.65;5.60;;;13.00;99.90;;;;;;5071469;28;20123;-78
2023/05/25 05:40:13;;;;;;;10.18;6.25;;;13.10;99.90;;;;;;5054269;28;20048;-80
2023/05/25 05:42:39;;;;;;;5.65;4.90;;;13.20;99.90;;;;;;5042695;28;20025;-80
2023/05/25 05:45:05;;;;;;;7.88;5.90;;;13.30;99.90;;;;;;5042014;28;20494;-81
2023/05/25 05:47:31;;;;;;;8.98;5.47;;;13.40;99.70;;;;;;5054341;28;20036;-80
2023/05/25 05:49:57;;;;;;;9.00;6.03;;;13.40;99.60;;;;;;5041554;28;20052;-80
2023/05/25 05:52:22;;;;;;;12.57;7.47;;;13.30;99.50;;;;;;5052957;28;20045;-78
2023/05/25 05:54:48;;;;;;;13.10;7.25;;;13.30;99.50;;;;;;5040035;28;20069;-79
2023/05/25 05:57:14;;;;;;;8.20;6.40;;;13.30;99.60;;;;;;5044746;28;20028;-78
2023/05/25 05:59:41;;;;;;;7.68;5.63;;;13.40;99.50;;;;;;5047547;28;20119;-76
2023/05/25 06:02:06;;;;;;;8.00;5.05;;;13.40;99.70;;;;;;5038350;28;20048;-79
2023/05/25 06:04:32;;;;;;;9.88;6.70;;;13.60;99.60;;;;;;5039109;28;20026;-79
2023/05/25 06:06:58;;;;;;;13.43;7.78;;;13.70;99.20;;;;;;5039278;28;20025;-79
2023/05/25 06:09:25;;;;;;;9.52;7.13;;;13.80;98.80;;;;;;5052360;28;20025;-78
2023/05/25 06:11:51;;;;;;;9.52;6.47;;;13.70;98.60;;;;;;5059156;28;20107;-78
2023/05/25 06:14:16;;;;;;;11.10;7.20;;;13.90;98.70;;;;;;5056151;28;20136;-77
2023/05/25 06:16:42;;;;;;;8.73;6.00;;;13.90;98.40;;;;;;5057779;28;20021;-79
2023/05/25 06:19:08;;;;;;;9.05;6.03;;;13.90;98.30;;;;;;5051127;28;20018;-79
2023/05/25 06:21:34;;;;;;;11.43;6.63;;;13.90;98.00;;;;;;5039018;28;20048;-80
2023/05/25 06:24:00;;;;;;;6.75;5.50;;;;;;;;;;5038319;28;20149;-80
2023/05/25 06:26:26;;;;;;;9.65;6.97;;;14.00;97.70;;;;;;5021066;28;20066;-79
2023/05/25 06:28:55;;;;;;;9.23;6.07;;;14.00;97.60;;;;;;5050375;28;20036;-80
2023/05/25 06:31:20;;;;;;;6.43;5.50;;;14.00;97.70;;;;;;5057568;28;20025;-79
2023/05/25 06:33:46;;;;;;;6.97;5.65;;;14.00;97.70;;;;;;5039824;28;20029;-78
2023/05/25 06:36:13;;;;;;;9.45;6.97;;;14.00;97.60;;;;;;5057689;28;20021;-78
2023/05/25 06:38:40;;;;;;;11.85;7.53;;;14.10;97.50;;;;;;5040701;28;20017;-79
2023/05/25 06:41:06;;;;;;;12.60;7.13;;;14.10;97.30;;;;;;5040887;28;20021;-79
2023/05/25 06:43:32;;;;;;;9.32;6.30;;;14.10;97.30;;;;;;5038927;28;20390;-79
2023/05/25 06:45:58;;;;;;;8.88;6.20;;;14.10;97.70;;;;;;5018582;28;20041;-79
2023/05/25 06:48:24;;;;;;;8.20;6.00;;;14.20;97.30;;;;;;5037667;28;20052;-79
2023/05/25 06:50:50;;;;;;;6.82;6.10;;;14.20;97.20;;;;;;5022898;28;20097;-79
2023/05/25 06:53:16;;;;;;;9.00;6.15;;;14.20;97.00;;;;;;5039781;28;20037;-79
2023/05/25 06:55:42;;;;;;;11.30;8.27;;;14.30;97.00;;;;;;5056888;28;20029;-79
2023/05/25 06:58:08;;;;;;;11.55;8.48;;;14.20;96.60;;;;;;5033473;28;20104;-78
2023/05/25 07:00:33;;;;;;;10.38;7.05;;;14.20;96.70;;;;;;5047200;28;20122;-78
2023/05/25 07:03:00;;;;;;;7.22;5.35;;;14.20;97.00;;;;;;5036609;28;20025;-79
2023/05/25 07:05:25;;;;;;;7.65;5.93;;;14.30;97.20;;;;;;5019289;28;20048;-78
2023/05/25 07:07:51;;;;;;;5.68;4.90;;;14.40;97.00;;;;;;5019404;28;20025;-78
2023/05/25 07:10:17;;;;;;;6.88;5.57;;;14.60;96.90;;;;;;5037120;28;20103;-77
2023/05/25 07:12:43;;;;;;;8.00;5.68;;;14.70;96.40;;;;;;5038616;28;20096;-78
2023/05/25 07:15:09;;;;;;;10.48;7.20;;;14.70;96.20;;;;;;5039268;28;20061;-79
2023/05/25 07:17:35;;;;;;;8.40;6.30;;;14.70;95.90;;;;;;5041009;28;20040;-78
2023/05/25 07:20:01;;;;;;;7.93;6.53;;;14.60;95.70;;;;;;5058917;28;20041;-79
2023/05/25 07:22:30;;;;;;;8.73;6.65;;;14.50;95.80;;;;;;5025727;28;20021;-77
2023/05/25 07:24:56;;;;;;;8.93;6.65;;;14.50;96.10;;;;;;5037623;28;20096;-78
2023/05/25 07:27:21;;;;;;;10.45;7.55;;;14.50;96.00;;;;;;5045627;28;20063;-77
2023/05/25 07:29:47;;;;;;;7.18;6.45;;;14.60;95.70;;;;;;5053544;28;20119;-78
2023/05/25 07:32:13;;;;;;;6.82;5.68;;;14.60;95.70;;;;;;5055799;28;20029;-77
2023/05/25 07:34:38;;;;;;;6.93;5.82;;;14.80;95.70;;;;;;5055163;28;20025;-77
2023/05/25 07:37:04;;;;;;;8.23;5.35;;;14.80;95.40;;;;;;5037008;28;20021;-77
2023/05/25 07:39:32;;;;;;;6.72;4.85;;;14.90;95.30;;;;;;5054458;28;20021;-77
2023/05/25 07:41:58;;;;;;;9.70;6.18;;;15.10;95.20;;;;;;5055826;28;20036;-78
2023/05/25 07:44:23;;;;;;;8.48;5.63;;;15.20;94.50;;;;;;5042785;28;20443;-77
2023/05/25 07:46:49;;;;;;;7.85;6.05;;;15.30;94.30;;;;;;5055526;28;20041;-78
2023/05/25 07:49:15;;;;;;;7.32;5.50;;;15.30;94.20;;;;;;5052512;28;20036;-75
2023/05/25 07:51:42;;;;;;;8.55;5.93;;;15.40;93.90;;;;;;5034084;28;20040;-76
2023/05/25 07:54:11;;;;;;;11.27;6.78;;;15.50;93.70;;;;;;5033385;28;20029;-77
2023/05/25 07:56:37;;;;;;;6.40;5.72;;;15.50;93.40;;;;;;5033959;28;20029;-77
2023/05/25 07:59:03;;;;;;;10.52;7.25;;;15.60;93.20;;;;;;5053073;28;20029;-76
2023/05/25 08:01:29;;;;;;;7.18;6.15;;;15.70;92.80;;;;;;5035955;28;20043;-77
2023/05/25 08:03:55;;;;;;;7.53;5.90;;;15.60;92.80;;;;;;5034694;28;20091;-84
2023/05/25 08:06:21;;;;;;;9.73;5.80;;;15.70;92.90;;;;;;5036586;28;20029;-81
2023/05/25 08:08:48;;;;;;;7.53;5.75;;;15.80;92.60;;;;;;5019337;28;20039;-80
2023/05/25 08:11:15;;;;;;;9.27;6.00;;;15.70;92.40;;;;;;5020891;28;20025;-81
2023/05/25 08:13:41;;;;;;;9.48;6.32;;;15.70;92.50;;;;;;5020207;28;20033;-81
2023/05/25 08:16:07;;;;;;;10.70;7.32;;;15.60;92.40;;;;;;5037736;28;20433;-81
2023/05/25 08:18:34;;;;;;;9.55;7.03;;;15.60;92.50;;;;;;5021470;28;20102;-80
2023/05/25 08:21:03;;;;;;;7.90;6.13;;;15.50;92.70;;;;;;5050160;28;20060;-81
2023/05/25 08:23:28;;;;;;;6.38;5.60;;;15.50;93.00;;;;;;5063322;28;20040;-78
2023/05/25 08:25:54;;;;;;;7.95;5.70;;;15.60;93.10;;;;;;5067771;28;20029;-82
2023/05/25 08:28:21;;;;;;;6.05;5.35;;;15.80;92.60;;;;;;5074292;28;20017;-82
2023/05/25 08:30:46;;;;;;;7.65;6.03;;;16.00;92.30;;;;;;5073473;28;20017;-80
2023/05/25 08:33:12;;;;;;;7.10;5.03;;;16.00;92.00;;;;;;5047230;28;20074;-81
2023/05/25 08:35:39;;;;;;;9.27;7.57;;;16.10;91.90;;;;;;5056986;28;20061;-78
2023/05/25 08:38:05;;;;;;;9.77;7.68;;;16.00;91.70;;;;;;5055220;28;20029;-78
2023/05/25 08:40:31;;;;;;;6.97;5.63;;;15.90;91.50;;;;;;5057405;28;20449;-79
2023/05/25 08:42:57;;;;;;;9.65;5.47;;;15.80;92.10;;;;;;5035858;28;20032;-79
2023/05/25 08:45:22;;;;;;;5.47;4.80;;;15.90;92.30;;;;;;5036477;28;20055;-79
2023/05/25 08:47:57;;;;;;;7.30;6.20;;;16.00;92.60;;;;;;5034935;28;20036;-79
2023/05/25 08:50:25;;;;;;;10.45;6.30;;;16.10;92.00;;;;;;5035140;28;20033;-79
2023/05/25 08:52:54;;;;;;;5.47;4.40;;;16.10;91.70;;;;;;5017749;28;20151;-79
2023/05/25 08:55:22;;;;;;;6.82;5.47;;;16.10;91.70;;;;;;5031765;28;20022;-79
2023/05/25 08:58:21;;;;;;;6.25;5.30;;;16.10;91.80;;;;;;5026839;28;20103;-81
2023/05/25 09:00:57;;;;;;;7.32;5.72;;;16.20;91.50;;;;;;5054358;28;20021;-79
2023/05/25 09:03:26;;;;;;;5.78;5.13;;;16.10;91.40;;;;;;5057798;28;20029;-81
2023/05/25 09:05:54;;;;;;;6.78;4.88;;;16.30;91.50;;;;;;5058402;28;20466;-81
2023/05/25 09:08:21;;;;;;;5.72;4.65;;;16.50;91.30;;;;;;5042264;28;20024;-82
2023/05/25 09:10:48;;;;;;;7.28;5.43;;;16.60;90.80;;;;;;5044554;28;20067;-83
2023/05/25 09:13:20;;;;;;;6.45;5.25;;;16.60;90.40;;;;;;5062909;28;20079;-82
2023/05/25 09:15:46;;;;;;;5.03;4.22;;;16.60;90.70;;;;;;5043955;28;20363;-80
2023/05/25 09:18:12;;;;;;;6.03;4.35;;;16.80;90.50;;;;;;5062198;28;20490;-79
2023/05/25 09:20:37;;;;;;;6.35;5.13;;;16.90;90.20;;;;;;5064791;28;20029;-79
2023/05/25 09:23:04;;;;;;;7.35;5.97;;;17.00;89.90;;;;;;5072307;28;20071;-81
2023/05/25 09:25:30;;;;;;;7.25;5.68;;;17.00;88.50;;;;;;5070208;28;20112;-80
2023/05/25 09:28:00;;;;;;;9.57;6.72;;;16.80;89.20;;;;;;5046001;28;20043;-80
2023/05/25 09:30:31;;;;;;;9.00;6.22;;;16.80;89.30;;;;;;5050246;28;20025;-81
2023/05/25 09:33:09;;;;;;;11.30;6.60;;;16.70;90.10;;;;;;5068897;28;20032;-80
2023/05/25 09:35:36;;;;;;;7.15;5.18;;;16.70;90.00;;;;;;5036278;28;20056;-82
2023/05/25 09:38:02;;;;;;;6.90;5.85;;;16.80;90.10;;;;;;5057232;28;20006;-80
2023/05/25 09:40:30;;;;;;;7.63;5.60;;;16.80;90.10;;;;;;5040842;28;20037;-85
2023/05/25 09:42:58;;;;;;;9.13;7.22;;;16.80;89.90;;;;;;5057665;28;20033;-89
2023/05/25 09:45:23;;;;;;;10.00;5.93;;;16.60;89.60;;;;;;5040349;28;20083;-83
2023/05/25 09:47:54;;;;;;;7.47;5.80;;;16.40;90.30;;;;;;5041032;28;20030;-83
2023/05/25 09:50:29;;;;;;;6.78;5.70;;;16.30;90.70;;;;;;5057817;28;20167;-85
2023/05/25 09:52:58;;;;;;;7.97;5.28;;;16.40;91.10;;;;;;5050407;28;20026;-82
2023/05/25 09:55:26;;;;;;;6.50;5.38;;;16.60;90.80;;;;;;5031731;28;20021;-83
2023/05/25 09:57:56;;;;;;;8.35;5.93;;;16.70;90.70;;;;;;5059697;28;20029;-83
2023/05/25 10:00:25;;;;;;;6.90;4.97;;;16.90;90.20;;;;;;5042892;28;20115;-83
2023/05/25 10:02:51;;;;;;;9.70;5.35;;;17.00;90.20;;;;;;5054273;28;20059;-83
2023/05/25 10:05:16;;;;;;;6.60;4.88;;;17.20;89.90;;;;;;5040792;28;20076;-83
2023/05/25 10:07:45;;;;;;;5.38;4.88;;;17.40;89.60;;;;;;5023277;28;20459;-83
2023/05/25 10:10:16;;;;;;;6.97;4.60;;;17.60;88.10;;;;;;5024330;28;20029;-84
2023/05/25 10:12:48;;;;;;;6.10;5.50;;;17.60;88.00;;;;;;5045396;28;20032;-84
2023/05/25 10:15:16;;;;;;;7.32;5.00;;;17.60;86.90;;;;;;5034059;28;20026;-89
2023/05/25 10:17:50;;;;;;;5.57;4.13;;;;;;;;;;5057198;28;20141;-88
2023/05/25 10:20:15;;;;;;;5.43;4.78;;;17.90;87.20;;;;;;5038325;28;20037;-83
2023/05/25 10:22:54;;;;;;;5.90;4.13;;;18.10;86.10;;;;;;5038590;28;20053;-82
2023/05/25 10:25:27;;;;;;;5.47;3.88;;;18.00;85.60;;;;;;5038821;28;20482;-82
2023/05/25 10:28:04;;;;;;;6.55;5.13;;;18.00;86.00;;;;;;5045007;28;20022;-82
2023/05/25 10:30:30;;;;;;;5.60;4.65;;;17.90;85.10;;;;;;5042340;28;20467;-83
2023/05/25 10:32:56;;;;;;;6.40;5.80;;;17.80;86.50;;;;;;5024753;28;20033;-83
2023/05/25 10:35:23;;;;;;;6.80;5.10;;;17.70;86.20;;;;;;5023190;28;20026;-82
2023/05/25 10:37:56;;;;;;;7.68;5.05;;;17.60;86.40;;;;;;5040992;28;20120;-85
2023/05/25 10:40:22;;;;;;;5.00;3.97;;;17.80;86.60;;;;;;5023335;28;20112;-84
2023/05/25 10:42:51;;;;;;;5.55;4.68;;;18.10;86.40;;;;;;5025280;28;20021;-83
2023/05/25 10:45:18;;;;;;;6.63;4.53;;;18.40;84.90;;;;;;5042415;28;20033;-81
2023/05/25 10:47:45;;;;;;;5.47;4.20;;;18.60;83.90;;;;;;5043662;28;20036;-82
2023/05/25 10:50:28;;;;;;;4.38;3.90;;;18.60;83.40;;;;;;5042013;28;20047;-87
2023/05/25 10:53:02;;;;;;;3.92;3.30;;;18.70;83.50;;;;;;5041820;28;20078;-83
2023/05/25 10:55:44;;;;;;;3.58;3.28;;;19.00;82.50;;;;;;5043855;28;20029;-82
2023/05/25 10:58:17;;;;;;;3.55;3.15;;;19.10;81.30;;;;;;5055140;28;20040;-84
2023/05/25 11:01:00;;;;;;;4.25;3.85;;;19.20;80.40;;;;;;5044262;28;20052;-86
2023/05/25 11:04:04;;;;;;;4.32;3.95;;;19.00;80.40;;;;;;5040888;28;20033;-82
2023/05/25 11:06:36;;;;;;;8.32;6.15;;;18.90;80.70;;;;;;5000907;28;20099;-80
2023/05/25 11:09:02;;;;;;;;;;;18.80;80.40;;;;;;5008782;28;20060;-81
2023/05/25 11:11:46;;;;;;;5.38;4.43;;;18.60;81.20;;;;;;5043612;28;19972;-82
2023/05/25 11:14:22;;;;;;;5.13;4.68;;;18.40;82.70;;;;;;5039214;28;20033;-82
2023/05/25 11:17:13;;;;;;;5.90;4.80;;;18.40;83.10;;;;;;5021089;28;20025;-81
2023/05/25 11:19:38;;;;;;;5.72;5.20;;;18.40;83.20;;;;;;5020218;28;20026;-82
2023/05/25 11:22:21;;;;;;;5.82;4.47;;;18.60;82.80;;;;;;5037018;28;20103;-82
2023/05/25 11:24:49;;;;;;;4.45;4.05;;;18.60;82.50;;;;;;5037799;28;20041;-81
2023/05/25 11:27:20;;;;;;;6.53;4.00;;;18.70;81.50;;;;;;5021467;28;20037;-81
2023/05/25 11:29:49;;;;;;;5.05;4.38;;;18.90;81.70;;;;;;5039232;28;20025;-80
2023/05/25 11:32:15;;;;;;;4.57;4.13;;;19.20;80.90;;;;;;5040093;28;20057;-80
2023/05/25 11:34:45;;;;;;;4.38;3.90;;;19.30;80.20;;;;;;5019801;28;20030;-82
2023/05/25 11:37:21;;;;;;;4.97;4.30;;;19.40;80.70;;;;;;5020028;28;20023;-82
2023/05/25 11:39:51;;;;;;;7.72;3.70;;;19.60;79.60;;;;;;5019885;28;20067;-81
2023/05/25 11:42:20;;;;;;;2.95;2.75;;;19.90;79.50;;;;;;5052195;23;20068;-78
2023/05/25 11:44:46;;;;;;;3.38;3.08;;;20.40;78.60;;;;;;5058913;28;20051;-76
2023/05/25 11:47:13;;;;;;;3.30;3.10;;;20.80;76.20;;;;;;5059322;28;20037;-80
2023/05/25 11:49:44;;;;;;;6.00;4.90;;;20.90;75.10;;;;;;5054303;28;20033;-77
2023/05/25 11:52:15;;;;;;;8.75;4.63;;;20.90;73.20;;;;;;5036485;28;20106;-79
2023/05/25 11:54:42;;;;;;;4.13;3.70;;;20.70;73.40;;;;;;5051477;28;20042;-80
2023/05/25 11:57:24;;;;;;;3.97;3.67;;;20.50;74.30;;;;;;5042136;28;20087;-80
2023/05/25 11:59:53;;;;;;;5.15;3.25;;;20.70;74.80;;;;;;5042669;28;20049;-79
2023/05/25 12:02:20;;;;;;;4.10;3.72;;;21.10;73.30;;;;;;5041032;28;20017;-79
2023/05/25 12:04:57;;;;;;;3.80;3.45;;;21.20;71.50;;;;;;5039883;28;20311;-79
2023/05/25 12:07:23;;;;;;;3.58;3.15;;;21.20;71.90;;;;;;5012909;28;20068;-79
2023/05/25 12:09:49;;;;;;;3.45;2.90;;;21.50;71.90;;;;;;5030207;28;20029;-80
2023/05/25 12:12:14;;;;;;;5.25;4.10;;;21.80;70.80;;;;;;5028227;28;20116;-79
2023/05/25 12:14:47;;;;;;;3.47;3.17;;;21.80;68.50;;;;;;5046935;28;20026;-83
2023/05/25 12:17:14;;;;;;;3.28;2.97;;;21.50;69.90;;;;;;5041824;28;20021;-80
2023/05/25 12:19:40;;;;;;;3.53;3.17;;;21.30;70.30;;;;;;5042384;28;20079;-80
2023/05/25 12:22:06;;;;;;;6.20;4.65;;;21.10;70.30;;;;;;5043013;28;20029;-81
2023/05/25 12:24:31;;;;;;;4.75;3.55;;;20.90;70.70;;;;;;5045147;28;20140;-79
2023/05/25 12:26:58;;;;;;;3.00;2.80;;;;;;;;;;5045699;28;20128;-79
2023/05/25 12:29:25;;;;;;;3.88;2.78;;;21.80;70.00;;;;;;5043634;28;20022;-80
2023/05/25 12:31:51;;;;;;;2.70;2.50;;;22.20;69.40;;;;;;5039270;28;20022;-80
2023/05/25 12:34:18;;;;;;;3.30;3.00;;;22.50;68.70;;;;;;5039801;28;20044;-80
2023/05/25 12:36:48;;;;;;;3.85;2.92;;;22.70;67.10;;;;;;5040051;28;20037;-79
2023/05/25 12:39:16;;;;;;;2.53;2.33;;;23.10;67.00;;;;;;5004795;28;20030;-80
2023/05/25 12:41:52;;;;;;;3.55;2.70;;;23.70;65.80;;;;;;5005202;28;20030;-81
2023/05/25 12:44:22;;;;;;;2.90;2.70;;;24.10;63.60;;;;;;5035043;28;20060;-80
2023/05/25 12:46:49;;;;;;;4.88;4.35;;;24.10;62.50;;;;;;5049541;28;20033;-79
2023/05/25 12:49:42;;;;;;;6.18;4.78;;;23.50;62.00;;;;;;5036206;28;20037;-80
2023/05/25 12:52:10;;;;;;;6.72;4.60;;;22.80;63.80;;;;;;5050855;28;20098;-78
2023/05/25 12:54:37;;;;;;;4.20;3.80;;;22.30;65.40;;;;;;5044974;28;20040;-80
2023/05/25 12:57:08;;;;;;;4.30;3.63;;;21.90;66.80;;;;;;5047600;28;20021;-78